sensor_id;sensor_type;location;lat;lon;timestamp;P1;durP1;ratioP1;P2;durP2;ratioP2
20294;SDS011;10306;52.128;5.208;2023-11-19T00:00:05;14.27;;;4.70;;
20294;SDS011;10306;52.128;5.208;2023-11-19T00:02:31;15.33;;;4.73;;
20294;SDS011;10306;52.128;5.208;2023-11-19T00:04:57;16.63;;;5.90;;
20294;SDS011;10306;52.128;5.208;2023-11-19T00:07:23;22.00;;;5.50;;
20294;SDS011;10306;52.128;5.208;2023-11-19T00:09:49;9.70;;;4.30;;
20294;SDS011;10306;52.128;5.208;2023-11-19T00:12:15;17.40;;;5.13;;
20294;SDS011;10306;52.128;5.208;2023-11-19T00:14:41;11.33;;;4.40;;
20294;SDS011;10306;52.128;5.208;2023-11-19T00:17:07;16.57;;;4.40;;
20294;SDS011;10306;52.128;5.208;2023-11-19T00:19:33;16.40;;;4.80;;
20294;SDS011;10306;52.128;5.208;2023-11-19T00:21:59;24.97;;;5.10;;
20294;SDS011;10306;52.128;5.208;2023-11-19T00:24:28;16.83;;;4.67;;
20294;SDS011;10306;52.128;5.208;2023-11-19T00:26:55;18.00;;;4.77;;
20294;SDS011;10306;52.128;5.208;2023-11-19T00:29:21;17.03;;;4.50;;
20294;SDS011;10306;52.128;5.208;2023-11-19T00:31:47;16.63;;;4.13;;
20294;SDS011;10306;52.128;5.208;2023-11-19T00:34:13;13.53;;;4.50;;
20294;SDS011;10306;52.128;5.208;2023-11-19T00:36:39;29.10;;;5.17;;
20294;SDS011;10306;52.128;5.208;2023-11-19T00:39:05;21.13;;;5.03;;
20294;SDS011;10306;52.128;5.208;2023-11-19T00:41:31;17.20;;;4.60;;
20294;SDS011;10306;52.128;5.208;2023-11-19T00:43:57;18.43;;;4.90;;
20294;SDS011;10306;52.128;5.208;2023-11-19T00:46:23;26.33;;;5.30;;
20294;SDS011;10306;52.128;5.208;2023-11-19T00:48:49;22.73;;;5.43;;
20294;SDS011;10306;52.128;5.208;2023-11-19T00:51:15;26.53;;;5.33;;
20294;SDS011;10306;52.128;5.208;2023-11-19T00:53:41;26.33;;;5.53;;
20294;SDS011;10306;52.128;5.208;2023-11-19T00:56:07;25.23;;;4.93;;
20294;SDS011;10306;52.128;5.208;2023-11-19T00:58:33;21.03;;;4.77;;
20294;SDS011;10306;52.128;5.208;2023-11-19T01:00:59;16.80;;;4.70;;
20294;SDS011;10306;52.128;5.208;2023-11-19T01:03:25;29.43;;;4.60;;
20294;SDS011;10306;52.128;5.208;2023-11-19T01:05:52;29.63;;;5.50;;
20294;SDS011;10306;52.128;5.208;2023-11-19T01:08:18;30.63;;;4.90;;
20294;SDS011;10306;52.128;5.208;2023-11-19T01:10:44;23.30;;;4.70;;
20294;SDS011;10306;52.128;5.208;2023-11-19T01:13:10;26.37;;;5.10;;
20294;SDS011;10306;52.128;5.208;2023-11-19T01:15:36;31.57;;;6.00;;
20294;SDS011;10306;52.128;5.208;2023-11-19T01:18:02;28.00;;;4.90;;
20294;SDS011;10306;52.128;5.208;2023-11-19T01:20:29;29.03;;;4.83;;
20294;SDS011;10306;52.128;5.208;2023-11-19T01:22:55;30.87;;;5.27;;
20294;SDS011;10306;52.128;5.208;2023-11-19T01:25:21;23.53;;;4.53;;
20294;SDS011;10306;52.128;5.208;2023-11-19T01:27:47;29.10;;;5.57;;
20294;SDS011;10306;52.128;5.208;2023-11-19T01:30:15;28.13;;;5.70;;
20294;SDS011;10306;52.128;5.208;2023-11-19T01:32:41;32.13;;;5.47;;
20294;SDS011;10306;52.128;5.208;2023-11-19T01:35:07;32.10;;;5.87;;
20294;SDS011;10306;52.128;5.208;2023-11-19T01:37:33;32.27;;;5.10;;
20294;SDS011;10306;52.128;5.208;2023-11-19T01:40:02;27.37;;;4.53;;
20294;SDS011;10306;52.128;5.208;2023-11-19T01:42:39;29.77;;;4.90;;
20294;SDS011;10306;52.128;5.208;2023-11-19T01:45:06;39.40;;;5.77;;
20294;SDS011;10306;52.128;5.208;2023-11-19T01:47:35;40.60;;;6.30;;
20294;SDS011;10306;52.128;5.208;2023-11-19T01:50:02;31.70;;;5.80;;
20294;SDS011;10306;52.128;5.208;2023-11-19T01:52:32;36.50;;;4.63;;
20294;SDS011;10306;52.128;5.208;2023-11-19T01:54:59;36.60;;;5.23;;
20294;SDS011;10306;52.128;5.208;2023-11-19T01:57:24;35.40;;;5.73;;
20294;SDS011;10306;52.128;5.208;2023-11-19T01:59:51;30.57;;;5.63;;
20294;SDS011;10306;52.128;5.208;2023-11-19T02:02:18;43.60;;;6.73;;
20294;SDS011;10306;52.128;5.208;2023-11-19T02:04:49;38.33;;;6.10;;
20294;SDS011;10306;52.128;5.208;2023-11-19T02:07:15;37.83;;;5.57;;
20294;SDS011;10306;52.128;5.208;2023-11-19T02:09:45;31.33;;;5.27;;
20294;SDS011;10306;52.128;5.208;2023-11-19T02:12:11;25.70;;;4.97;;
20294;SDS011;10306;52.128;5.208;2023-11-19T02:14:37;36.80;;;5.57;;
20294;SDS011;10306;52.128;5.208;2023-11-19T02:17:03;41.03;;;5.80;;
20294;SDS011;10306;52.128;5.208;2023-11-19T02:19:29;42.80;;;5.63;;
20294;SDS011;10306;52.128;5.208;2023-11-19T02:21:55;31.70;;;5.77;;
20294;SDS011;10306;52.128;5.208;2023-11-19T02:24:21;38.13;;;6.47;;
20294;SDS011;10306;52.128;5.208;2023-11-19T02:29:26;43.37;;;6.63;;
20294;SDS011;10306;52.128;5.208;2023-11-19T02:31:52;34.23;;;5.50;;
20294;SDS011;10306;52.128;5.208;2023-11-19T02:34:19;32.57;;;5.70;;
20294;SDS011;10306;52.128;5.208;2023-11-19T02:36:46;41.53;;;6.47;;
20294;SDS011;10306;52.128;5.208;2023-11-19T02:39:12;36.67;;;6.53;;
20294;SDS011;10306;52.128;5.208;2023-11-19T02:41:39;41.83;;;5.77;;
20294;SDS011;10306;52.128;5.208;2023-11-19T02:44:08;41.03;;;6.37;;
20294;SDS011;10306;52.128;5.208;2023-11-19T02:46:34;28.97;;;5.70;;
20294;SDS011;10306;52.128;5.208;2023-11-19T02:49:00;36.23;;;6.43;;
20294;SDS011;10306;52.128;5.208;2023-11-19T02:51:26;43.83;;;6.27;;
20294;SDS011;10306;52.128;5.208;2023-11-19T02:53:52;44.63;;;6.70;;
20294;SDS011;10306;52.128;5.208;2023-11-19T02:56:18;38.50;;;6.07;;
20294;SDS011;10306;52.128;5.208;2023-11-19T02:58:51;35.57;;;6.00;;
20294;SDS011;10306;52.128;5.208;2023-11-19T03:01:24;39.90;;;7.37;;
20294;SDS011;10306;52.128;5.208;2023-11-19T03:03:55;40.60;;;6.57;;
20294;SDS011;10306;52.128;5.208;2023-11-19T03:06:22;36.90;;;6.40;;
20294;SDS011;10306;52.128;5.208;2023-11-19T03:08:49;41.43;;;6.53;;
20294;SDS011;10306;52.128;5.208;2023-11-19T03:11:15;46.47;;;7.00;;
20294;SDS011;10306;52.128;5.208;2023-11-19T03:13:41;38.07;;;6.50;;
20294;SDS011;10306;52.128;5.208;2023-11-19T03:16:07;38.17;;;5.93;;
20294;SDS011;10306;52.128;5.208;2023-11-19T03:18:33;30.17;;;6.17;;
20294;SDS011;10306;52.128;5.208;2023-11-19T03:20:59;35.33;;;6.20;;
20294;SDS011;10306;52.128;5.208;2023-11-19T03:23:25;35.50;;;6.47;;
20294;SDS011;10306;52.128;5.208;2023-11-19T03:25:54;42.77;;;6.27;;
20294;SDS011;10306;52.128;5.208;2023-11-19T03:28:21;37.63;;;6.00;;
20294;SDS011;10306;52.128;5.208;2023-11-19T03:30:47;44.17;;;7.03;;
20294;SDS011;10306;52.128;5.208;2023-11-19T03:33:13;34.93;;;6.40;;
20294;SDS011;10306;52.128;5.208;2023-11-19T03:35:39;39.40;;;6.50;;
20294;SDS011;10306;52.128;5.208;2023-11-19T03:38:06;41.07;;;6.70;;
20294;SDS011;10306;52.128;5.208;2023-11-19T03:40:32;41.23;;;6.60;;
20294;SDS011;10306;52.128;5.208;2023-11-19T03:42:58;36.23;;;5.43;;
20294;SDS011;10306;52.128;5.208;2023-11-19T03:45:24;32.87;;;6.67;;
20294;SDS011;10306;52.128;5.208;2023-11-19T03:47:50;41.27;;;6.83;;
20294;SDS011;10306;52.128;5.208;2023-11-19T03:50:16;39.67;;;6.27;;
20294;SDS011;10306;52.128;5.208;2023-11-19T03:52:45;40.90;;;6.47;;
20294;SDS011;10306;52.128;5.208;2023-11-19T03:55:10;39.33;;;7.40;;
20294;SDS011;10306;52.128;5.208;2023-11-19T03:57:37;44.93;;;6.87;;
20294;SDS011;10306;52.128;5.208;2023-11-19T04:00:03;48.03;;;7.33;;
20294;SDS011;10306;52.128;5.208;2023-11-19T04:02:38;43.47;;;7.23;;
20294;SDS011;10306;52.128;5.208;2023-11-19T04:05:04;41.63;;;6.27;;
20294;SDS011;10306;52.128;5.208;2023-11-19T04:07:31;49.60;;;7.10;;
20294;SDS011;10306;52.128;5.208;2023-11-19T04:09:57;44.53;;;6.70;;
20294;SDS011;10306;52.128;5.208;2023-11-19T04:12:23;43.97;;;6.33;;
20294;SDS011;10306;52.128;5.208;2023-11-19T04:14:49;41.13;;;6.77;;
20294;SDS011;10306;52.128;5.208;2023-11-19T04:17:15;34.80;;;6.30;;
20294;SDS011;10306;52.128;5.208;2023-11-19T04:19:41;41.67;;;6.60;;
20294;SDS011;10306;52.128;5.208;2023-11-19T04:22:08;34.03;;;5.70;;
20294;SDS011;10306;52.128;5.208;2023-11-19T04:24:34;37.83;;;7.13;;
20294;SDS011;10306;52.128;5.208;2023-11-19T04:27:00;37.57;;;6.23;;
20294;SDS011;10306;52.128;5.208;2023-11-19T04:29:26;36.13;;;7.23;;
20294;SDS011;10306;52.128;5.208;2023-11-19T04:31:52;43.37;;;6.77;;
20294;SDS011;10306;52.128;5.208;2023-11-19T04:34:18;40.20;;;6.60;;
20294;SDS011;10306;52.128;5.208;2023-11-19T04:36:44;36.03;;;6.40;;
20294;SDS011;10306;52.128;5.208;2023-11-19T04:39:10;36.00;;;6.13;;
20294;SDS011;10306;52.128;5.208;2023-11-19T04:41:41;41.70;;;6.57;;
20294;SDS011;10306;52.128;5.208;2023-11-19T04:44:10;42.00;;;6.03;;
20294;SDS011;10306;52.128;5.208;2023-11-19T04:46:36;52.87;;;7.80;;
20294;SDS011;10306;52.128;5.208;2023-11-19T04:49:02;44.50;;;7.27;;
20294;SDS011;10306;52.128;5.208;2023-11-19T04:51:29;43.00;;;6.97;;
20294;SDS011;10306;52.128;5.208;2023-11-19T04:53:55;45.13;;;7.20;;
20294;SDS011;10306;52.128;5.208;2023-11-19T04:56:21;42.83;;;6.27;;
20294;SDS011;10306;52.128;5.208;2023-11-19T04:58:48;40.27;;;6.00;;
20294;SDS011;10306;52.128;5.208;2023-11-19T05:01:14;42.73;;;6.00;;
20294;SDS011;10306;52.128;5.208;2023-11-19T05:03:43;38.43;;;6.73;;
20294;SDS011;10306;52.128;5.208;2023-11-19T05:06:10;43.53;;;6.73;;
20294;SDS011;10306;52.128;5.208;2023-11-19T05:08:36;42.37;;;7.27;;
20294;SDS011;10306;52.128;5.208;2023-11-19T05:11:02;46.47;;;6.53;;
20294;SDS011;10306;52.128;5.208;2023-11-19T05:13:28;44.30;;;6.73;;
20294;SDS011;10306;52.128;5.208;2023-11-19T05:15:54;31.90;;;5.47;;
20294;SDS011;10306;52.128;5.208;2023-11-19T05:18:20;36.50;;;6.40;;
20294;SDS011;10306;52.128;5.208;2023-11-19T05:20:46;38.70;;;6.10;;
20294;SDS011;10306;52.128;5.208;2023-11-19T05:23:12;36.87;;;6.83;;
20294;SDS011;10306;52.128;5.208;2023-11-19T05:25:38;41.77;;;6.57;;
20294;SDS011;10306;52.128;5.208;2023-11-19T05:28:04;38.13;;;5.83;;
20294;SDS011;10306;52.128;5.208;2023-11-19T05:30:30;28.50;;;6.00;;
20294;SDS011;10306;52.128;5.208;2023-11-19T05:32:56;34.07;;;5.77;;
20294;SDS011;10306;52.128;5.208;2023-11-19T05:35:22;41.50;;;6.10;;
20294;SDS011;10306;52.128;5.208;2023-11-19T05:37:48;46.73;;;8.00;;
20294;SDS011;10306;52.128;5.208;2023-11-19T05:40:15;35.60;;;6.07;;
20294;SDS011;10306;52.128;5.208;2023-11-19T05:42:41;37.60;;;6.33;;
20294;SDS011;10306;52.128;5.208;2023-11-19T05:45:07;46.70;;;6.67;;
20294;SDS011;10306;52.128;5.208;2023-11-19T05:47:34;40.60;;;6.10;;
20294;SDS011;10306;52.128;5.208;2023-11-19T05:50:01;33.23;;;5.80;;
20294;SDS011;10306;52.128;5.208;2023-11-19T05:52:26;32.20;;;5.20;;
20294;SDS011;10306;52.128;5.208;2023-11-19T05:54:58;47.80;;;6.40;;
20294;SDS011;10306;52.128;5.208;2023-11-19T05:57:24;39.70;;;6.00;;
20294;SDS011;10306;52.128;5.208;2023-11-19T05:59:50;43.20;;;7.13;;
20294;SDS011;10306;52.128;5.208;2023-11-19T06:02:16;33.23;;;6.53;;
20294;SDS011;10306;52.128;5.208;2023-11-19T06:04:42;47.00;;;6.50;;
20294;SDS011;10306;52.128;5.208;2023-11-19T06:07:09;41.20;;;6.07;;
20294;SDS011;10306;52.128;5.208;2023-11-19T06:09:35;37.43;;;5.77;;
20294;SDS011;10306;52.128;5.208;2023-11-19T06:12:01;30.43;;;5.67;;
20294;SDS011;10306;52.128;5.208;2023-11-19T06:14:28;40.07;;;6.83;;
20294;SDS011;10306;52.128;5.208;2023-11-19T06:16:54;43.97;;;5.93;;
20294;SDS011;10306;52.128;5.208;2023-11-19T06:19:20;32.93;;;5.20;;
20294;SDS011;10306;52.128;5.208;2023-11-19T06:21:46;40.53;;;6.27;;
20294;SDS011;10306;52.128;5.208;2023-11-19T06:24:12;42.53;;;7.57;;
20294;SDS011;10306;52.128;5.208;2023-11-19T06:26:38;36.40;;;6.33;;
20294;SDS011;10306;52.128;5.208;2023-11-19T06:29:04;39.23;;;6.30;;
20294;SDS011;10306;52.128;5.208;2023-11-19T06:31:30;29.83;;;5.70;;
20294;SDS011;10306;52.128;5.208;2023-11-19T06:33:56;32.30;;;6.17;;
20294;SDS011;10306;52.128;5.208;2023-11-19T06:36:22;46.83;;;7.20;;
20294;SDS011;10306;52.128;5.208;2023-11-19T06:38:48;35.60;;;6.47;;
20294;SDS011;10306;52.128;5.208;2023-11-19T06:41:14;37.83;;;5.90;;
20294;SDS011;10306;52.128;5.208;2023-11-19T06:43:40;43.90;;;6.73;;
20294;SDS011;10306;52.128;5.208;2023-11-19T06:46:14;39.63;;;6.13;;
20294;SDS011;10306;52.128;5.208;2023-11-19T06:48:40;31.03;;;5.93;;
20294;SDS011;10306;52.128;5.208;2023-11-19T06:51:07;31.97;;;5.47;;
20294;SDS011;10306;52.128;5.208;2023-11-19T06:53:34;34.50;;;6.03;;
20294;SDS011;10306;52.128;5.208;2023-11-19T06:56:00;30.77;;;5.77;;
20294;SDS011;10306;52.128;5.208;2023-11-19T06:58:29;26.43;;;5.40;;
20294;SDS011;10306;52.128;5.208;2023-11-19T07:00:54;41.07;;;6.13;;
20294;SDS011;10306;52.128;5.208;2023-11-19T07:03:20;39.03;;;7.00;;
20294;SDS011;10306;52.128;5.208;2023-11-19T07:05:46;40.60;;;6.33;;
20294;SDS011;10306;52.128;5.208;2023-11-19T07:08:12;32.13;;;6.23;;
20294;SDS011;10306;52.128;5.208;2023-11-19T07:10:38;35.73;;;5.20;;
20294;SDS011;10306;52.128;5.208;2023-11-19T07:13:04;36.97;;;5.70;;
20294;SDS011;10306;52.128;5.208;2023-11-19T07:15:31;39.93;;;7.73;;
20294;SDS011;10306;52.128;5.208;2023-11-19T07:17:57;34.03;;;4.93;;
20294;SDS011;10306;52.128;5.208;2023-11-19T07:20:24;40.20;;;5.33;;
20294;SDS011;10306;52.128;5.208;2023-11-19T07:22:51;29.67;;;5.20;;
20294;SDS011;10306;52.128;5.208;2023-11-19T07:25:17;32.50;;;5.23;;
20294;SDS011;10306;52.128;5.208;2023-11-19T07:27:43;36.13;;;6.00;;
20294;SDS011;10306;52.128;5.208;2023-11-19T07:30:09;41.17;;;6.77;;
20294;SDS011;10306;52.128;5.208;2023-11-19T07:32:35;40.97;;;6.13;;
20294;SDS011;10306;52.128;5.208;2023-11-19T07:35:04;35.50;;;5.63;;
20294;SDS011;10306;52.128;5.208;2023-11-19T07:37:30;37.10;;;5.73;;
20294;SDS011;10306;52.128;5.208;2023-11-19T07:39:56;29.80;;;5.33;;
20294;SDS011;10306;52.128;5.208;2023-11-19T07:42:22;33.70;;;5.60;;
20294;SDS011;10306;52.128;5.208;2023-11-19T07:44:48;30.30;;;5.30;;
20294;SDS011;10306;52.128;5.208;2023-11-19T07:47:14;32.50;;;5.27;;
20294;SDS011;10306;52.128;5.208;2023-11-19T07:49:40;36.27;;;6.03;;
20294;SDS011;10306;52.128;5.208;2023-11-19T07:52:08;35.47;;;6.20;;
20294;SDS011;10306;52.128;5.208;2023-11-19T07:54:34;37.73;;;6.23;;
20294;SDS011;10306;52.128;5.208;2023-11-19T07:57:00;38.03;;;7.13;;
20294;SDS011;10306;52.128;5.208;2023-11-19T07:59:26;42.90;;;8.27;;
20294;SDS011;10306;52.128;5.208;2023-11-19T08:01:52;42.60;;;7.37;;
20294;SDS011;10306;52.128;5.208;2023-11-19T08:04:18;36.87;;;6.67;;
20294;SDS011;10306;52.128;5.208;2023-11-19T08:06:44;33.23;;;5.83;;
20294;SDS011;10306;52.128;5.208;2023-11-19T08:09:10;38.37;;;6.73;;
20294;SDS011;10306;52.128;5.208;2023-11-19T08:11:38;35.33;;;6.13;;
20294;SDS011;10306;52.128;5.208;2023-11-19T08:14:04;35.50;;;5.90;;
20294;SDS011;10306;52.128;5.208;2023-11-19T08:16:30;35.13;;;5.93;;
20294;SDS011;10306;52.128;5.208;2023-11-19T08:18:56;43.83;;;6.37;;
20294;SDS011;10306;52.128;5.208;2023-11-19T08:21:23;41.70;;;6.33;;
20294;SDS011;10306;52.128;5.208;2023-11-19T08:23:49;35.37;;;5.93;;
20294;SDS011;10306;52.128;5.208;2023-11-19T08:26:15;47.03;;;7.50;;
20294;SDS011;10306;52.128;5.208;2023-11-19T08:28:41;46.80;;;5.73;;
20294;SDS011;10306;52.128;5.208;2023-11-19T08:31:07;33.93;;;5.77;;
20294;SDS011;10306;52.128;5.208;2023-11-19T08:33:33;40.93;;;5.63;;
20294;SDS011;10306;52.128;5.208;2023-11-19T08:35:59;37.50;;;6.17;;
20294;SDS011;10306;52.128;5.208;2023-11-19T08:38:25;37.70;;;6.23;;
20294;SDS011;10306;52.128;5.208;2023-11-19T08:40:51;38.93;;;5.77;;
20294;SDS011;10306;52.128;5.208;2023-11-19T08:43:17;40.33;;;6.13;;
20294;SDS011;10306;52.128;5.208;2023-11-19T08:45:43;33.43;;;5.13;;
20294;SDS011;10306;52.128;5.208;2023-11-19T08:48:09;29.50;;;4.80;;
20294;SDS011;10306;52.128;5.208;2023-11-19T08:50:35;32.60;;;5.13;;
20294;SDS011;10306;52.128;5.208;2023-11-19T08:53:01;29.07;;;5.23;;
20294;SDS011;10306;52.128;5.208;2023-11-19T08:55:27;36.47;;;5.53;;
20294;SDS011;10306;52.128;5.208;2023-11-19T08:57:53;32.27;;;5.40;;
20294;SDS011;10306;52.128;5.208;2023-11-19T09:00:19;35.03;;;6.07;;
20294;SDS011;10306;52.128;5.208;2023-11-19T09:02:46;35.77;;;5.90;;
20294;SDS011;10306;52.128;5.208;2023-11-19T09:05:12;36.63;;;6.90;;
20294;SDS011;10306;52.128;5.208;2023-11-19T09:07:38;34.70;;;5.93;;
20294;SDS011;10306;52.128;5.208;2023-11-19T09:10:04;28.40;;;5.03;;
20294;SDS011;10306;52.128;5.208;2023-11-19T09:12:30;27.17;;;4.90;;
20294;SDS011;10306;52.128;5.208;2023-11-19T09:14:56;37.47;;;5.40;;
20294;SDS011;10306;52.128;5.208;2023-11-19T09:17:22;38.93;;;6.53;;
20294;SDS011;10306;52.128;5.208;2023-11-19T09:19:48;31.33;;;5.80;;
20294;SDS011;10306;52.128;5.208;2023-11-19T09:22:14;34.03;;;5.37;;
20294;SDS011;10306;52.128;5.208;2023-11-19T09:24:41;28.43;;;5.30;;
20294;SDS011;10306;52.128;5.208;2023-11-19T09:27:09;28.70;;;5.27;;
20294;SDS011;10306;52.128;5.208;2023-11-19T09:29:35;29.17;;;4.47;;
20294;SDS011;10306;52.128;5.208;2023-11-19T09:32:01;33.47;;;4.87;;
20294;SDS011;10306;52.128;5.208;2023-11-19T09:34:27;31.27;;;4.97;;
20294;SDS011;10306;52.128;5.208;2023-11-19T09:36:53;29.23;;;5.17;;
20294;SDS011;10306;52.128;5.208;2023-11-19T09:39:19;27.17;;;5.10;;
20294;SDS011;10306;52.128;5.208;2023-11-19T09:41:46;25.50;;;5.37;;
20294;SDS011;10306;52.128;5.208;2023-11-19T09:44:12;29.57;;;5.40;;
20294;SDS011;10306;52.128;5.208;2023-11-19T09:46:41;36.13;;;6.37;;
20294;SDS011;10306;52.128;5.208;2023-11-19T09:49:08;31.00;;;5.07;;
20294;SDS011;10306;52.128;5.208;2023-11-19T09:51:35;36.57;;;6.20;;
20294;SDS011;10306;52.128;5.208;2023-11-19T09:54:01;38.17;;;5.87;;
20294;SDS011;10306;52.128;5.208;2023-11-19T09:56:27;26.50;;;5.13;;
20294;SDS011;10306;52.128;5.208;2023-11-19T09:58:57;37.53;;;6.07;;
20294;SDS011;10306;52.128;5.208;2023-11-19T10:01:24;31.43;;;5.20;;
20294;SDS011;10306;52.128;5.208;2023-11-19T10:03:50;30.23;;;5.20;;
20294;SDS011;10306;52.128;5.208;2023-11-19T10:06:20;31.60;;;5.03;;
20294;SDS011;10306;52.128;5.208;2023-11-19T10:08:47;28.53;;;4.87;;
20294;SDS011;10306;52.128;5.208;2023-11-19T10:11:13;29.20;;;5.80;;
20294;SDS011;10306;52.128;5.208;2023-11-19T10:13:40;31.53;;;5.40;;
20294;SDS011;10306;52.128;5.208;2023-11-19T10:16:12;26.67;;;5.13;;
20294;SDS011;10306;52.128;5.208;2023-11-19T10:18:42;32.77;;;5.10;;
20294;SDS011;10306;52.128;5.208;2023-11-19T10:21:08;35.53;;;6.33;;
20294;SDS011;10306;52.128;5.208;2023-11-19T10:23:51;23.30;;;5.50;;
20294;SDS011;10306;52.128;5.208;2023-11-19T10:26:18;37.60;;;5.37;;
20294;SDS011;10306;52.128;5.208;2023-11-19T10:28:47;24.57;;;4.60;;
20294;SDS011;10306;52.128;5.208;2023-11-19T10:31:14;30.83;;;5.30;;
20294;SDS011;10306;52.128;5.208;2023-11-19T10:33:40;31.63;;;4.73;;
20294;SDS011;10306;52.128;5.208;2023-11-19T10:36:07;24.80;;;4.50;;
20294;SDS011;10306;52.128;5.208;2023-11-19T10:38:33;24.20;;;4.67;;
20294;SDS011;10306;52.128;5.208;2023-11-19T10:40:59;23.87;;;4.97;;
20294;SDS011;10306;52.128;5.208;2023-11-19T10:43:25;28.77;;;5.37;;
20294;SDS011;10306;52.128;5.208;2023-11-19T10:45:52;35.37;;;6.00;;
20294;SDS011;10306;52.128;5.208;2023-11-19T10:48:18;38.33;;;5.50;;
20294;SDS011;10306;52.128;5.208;2023-11-19T10:50:46;34.17;;;7.17;;
20294;SDS011;10306;52.128;5.208;2023-11-19T10:53:15;27.00;;;5.30;;
20294;SDS011;10306;52.128;5.208;2023-11-19T10:55:42;31.97;;;5.73;;
20294;SDS011;10306;52.128;5.208;2023-11-19T10:58:12;35.57;;;6.13;;
20294;SDS011;10306;52.128;5.208;2023-11-19T11:00:45;21.50;;;4.20;;
20294;SDS011;10306;52.128;5.208;2023-11-19T11:05:40;31.80;;;5.77;;
20294;SDS011;10306;52.128;5.208;2023-11-19T11:08:06;32.17;;;6.13;;
20294;SDS011;10306;52.128;5.208;2023-11-19T11:10:35;26.60;;;5.20;;
20294;SDS011;10306;52.128;5.208;2023-11-19T11:13:03;27.53;;;5.40;;
20294;SDS011;10306;52.128;5.208;2023-11-19T11:15:29;25.47;;;6.00;;
20294;SDS011;10306;52.128;5.208;2023-11-19T11:17:57;31.10;;;5.57;;
20294;SDS011;10306;52.128;5.208;2023-11-19T11:20:26;22.23;;;5.33;;
20294;SDS011;10306;52.128;5.208;2023-11-19T11:28:17;29.47;;;5.07;;
20294;SDS011;10306;52.128;5.208;2023-11-19T11:30:52;25.13;;;4.87;;
20294;SDS011;10306;52.128;5.208;2023-11-19T11:34:27;30.27;;;5.40;;
20294;SDS011;10306;52.128;5.208;2023-11-19T11:36:20;29.70;;;5.53;;
20294;SDS011;10306;52.128;5.208;2023-11-19T11:38:50;32.53;;;4.83;;
20294;SDS011;10306;52.128;5.208;2023-11-19T11:41:20;22.57;;;4.50;;
20294;SDS011;10306;52.128;5.208;2023-11-19T11:49:07;35.80;;;5.93;;
20294;SDS011;10306;52.128;5.208;2023-11-19T11:54:11;32.53;;;5.17;;
20294;SDS011;10306;52.128;5.208;2023-11-19T12:02:07;30.33;;;4.93;;
20294;SDS011;10306;52.128;5.208;2023-11-19T12:04:36;29.40;;;5.20;;
20294;SDS011;10306;52.128;5.208;2023-11-19T12:09:32;26.60;;;5.40;;
20294;SDS011;10306;52.128;5.208;2023-11-19T12:14:59;27.17;;;4.70;;
20294;SDS011;10306;52.128;5.208;2023-11-19T12:20:00;29.70;;;4.30;;
20294;SDS011;10306;52.128;5.208;2023-11-19T12:22:27;35.20;;;6.07;;
20294;SDS011;10306;52.128;5.208;2023-11-19T12:24:53;30.13;;;5.63;;
20294;SDS011;10306;52.128;5.208;2023-11-19T12:27:19;25.40;;;4.37;;
20294;SDS011;10306;52.128;5.208;2023-11-19T12:29:49;24.33;;;5.03;;
20294;SDS011;10306;52.128;5.208;2023-11-19T12:32:15;22.70;;;4.03;;
20294;SDS011;10306;52.128;5.208;2023-11-19T12:34:41;27.57;;;4.53;;
20294;SDS011;10306;52.128;5.208;2023-11-19T12:37:07;28.57;;;4.70;;
20294;SDS011;10306;52.128;5.208;2023-11-19T12:39:34;21.33;;;4.87;;
20294;SDS011;10306;52.128;5.208;2023-11-19T12:42:00;24.20;;;4.53;;
20294;SDS011;10306;52.128;5.208;2023-11-19T12:44:27;22.13;;;4.07;;
20294;SDS011;10306;52.128;5.208;2023-11-19T12:47:06;20.50;;;4.60;;
20294;SDS011;10306;52.128;5.208;2023-11-19T12:49:32;25.37;;;5.47;;
20294;SDS011;10306;52.128;5.208;2023-11-19T12:51:59;22.50;;;4.13;;
20294;SDS011;10306;52.128;5.208;2023-11-19T12:54:32;31.47;;;4.40;;
20294;SDS011;10306;52.128;5.208;2023-11-19T12:56:58;23.80;;;4.10;;
20294;SDS011;10306;52.128;5.208;2023-11-19T12:59:24;23.23;;;6.07;;
20294;SDS011;10306;52.128;5.208;2023-11-19T13:01:57;25.80;;;4.43;;
20294;SDS011;10306;52.128;5.208;2023-11-19T13:04:27;19.20;;;4.17;;
20294;SDS011;10306;52.128;5.208;2023-11-19T13:06:53;21.17;;;4.60;;
20294;SDS011;10306;52.128;5.208;2023-11-19T13:09:23;23.50;;;3.83;;
20294;SDS011;10306;52.128;5.208;2023-11-19T13:11:52;25.13;;;4.73;;
20294;SDS011;10306;52.128;5.208;2023-11-19T13:14:18;17.17;;;4.13;;
20294;SDS011;10306;52.128;5.208;2023-11-19T13:16:45;24.67;;;3.83;;
20294;SDS011;10306;52.128;5.208;2023-11-19T13:19:12;23.10;;;4.63;;
20294;SDS011;10306;52.128;5.208;2023-11-19T13:21:38;20.37;;;4.33;;
20294;SDS011;10306;52.128;5.208;2023-11-19T13:24:06;16.93;;;4.30;;
20294;SDS011;10306;52.128;5.208;2023-11-19T13:26:33;21.87;;;4.17;;
20294;SDS011;10306;52.128;5.208;2023-11-19T13:28:59;22.23;;;4.73;;
20294;SDS011;10306;52.128;5.208;2023-11-19T13:31:26;30.07;;;4.87;;
20294;SDS011;10306;52.128;5.208;2023-11-19T13:33:52;21.57;;;4.27;;
20294;SDS011;10306;52.128;5.208;2023-11-19T13:36:18;22.37;;;5.70;;
20294;SDS011;10306;52.128;5.208;2023-11-19T13:38:44;29.30;;;5.07;;
20294;SDS011;10306;52.128;5.208;2023-11-19T13:41:11;21.87;;;4.83;;
20294;SDS011;10306;52.128;5.208;2023-11-19T13:43:38;27.70;;;5.63;;
20294;SDS011;10306;52.128;5.208;2023-11-19T13:46:04;24.03;;;4.97;;
20294;SDS011;10306;52.128;5.208;2023-11-19T13:48:30;32.13;;;5.87;;
20294;SDS011;10306;52.128;5.208;2023-11-19T13:50:57;24.50;;;4.60;;
20294;SDS011;10306;52.128;5.208;2023-11-19T13:53:23;17.80;;;4.80;;
20294;SDS011;10306;52.128;5.208;2023-11-19T13:55:49;25.97;;;4.97;;
20294;SDS011;10306;52.128;5.208;2023-11-19T13:58:15;24.17;;;4.53;;
20294;SDS011;10306;52.128;5.208;2023-11-19T14:00:41;32.40;;;4.73;;
20294;SDS011;10306;52.128;5.208;2023-11-19T14:03:08;27.23;;;4.67;;
20294;SDS011;10306;52.128;5.208;2023-11-19T14:05:36;28.83;;;4.93;;
20294;SDS011;10306;52.128;5.208;2023-11-19T14:08:02;27.20;;;5.23;;
20294;SDS011;10306;52.128;5.208;2023-11-19T14:10:28;23.03;;;4.73;;
20294;SDS011;10306;52.128;5.208;2023-11-19T14:12:54;25.97;;;5.23;;
20294;SDS011;10306;52.128;5.208;2023-11-19T14:15:20;22.03;;;4.20;;
20294;SDS011;10306;52.128;5.208;2023-11-19T14:17:46;25.43;;;4.53;;
20294;SDS011;10306;52.128;5.208;2023-11-19T14:20:12;27.80;;;4.77;;
20294;SDS011;10306;52.128;5.208;2023-11-19T14:22:41;21.73;;;4.07;;
20294;SDS011;10306;52.128;5.208;2023-11-19T14:25:08;32.00;;;4.90;;
20294;SDS011;10306;52.128;5.208;2023-11-19T14:27:37;22.53;;;5.00;;
20294;SDS011;10306;52.128;5.208;2023-11-19T14:30:07;26.53;;;4.90;;
20294;SDS011;10306;52.128;5.208;2023-11-19T14:32:33;28.23;;;5.20;;
20294;SDS011;10306;52.128;5.208;2023-11-19T14:35:01;31.20;;;5.07;;
20294;SDS011;10306;52.128;5.208;2023-11-19T14:37:28;25.00;;;4.07;;
20294;SDS011;10306;52.128;5.208;2023-11-19T14:39:55;16.63;;;4.13;;
20294;SDS011;10306;52.128;5.208;2023-11-19T14:42:22;28.70;;;4.73;;
20294;SDS011;10306;52.128;5.208;2023-11-19T14:44:50;30.00;;;5.20;;
20294;SDS011;10306;52.128;5.208;2023-11-19T14:47:17;23.70;;;6.50;;
20294;SDS011;10306;52.128;5.208;2023-11-19T14:49:43;27.43;;;4.27;;
20294;SDS011;10306;52.128;5.208;2023-11-19T14:52:09;30.13;;;4.43;;
20294;SDS011;10306;52.128;5.208;2023-11-19T14:54:36;25.50;;;4.60;;
20294;SDS011;10306;52.128;5.208;2023-11-19T14:57:03;27.80;;;5.20;;
20294;SDS011;10306;52.128;5.208;2023-11-19T14:59:29;22.90;;;4.50;;
20294;SDS011;10306;52.128;5.208;2023-11-19T15:01:55;32.57;;;5.47;;